Time;durP1;ratioP1;P1;durP2;ratioP2;P2;SDS_P1;SDS_P2;PMS_P1;PMS_P2;Temp;Humidity;BMP_temperature;BMP_pressure;BME280_temperature;BME280_humidity;BME280_pressure;Samples;Min_cycle;Max_cycle;Signal;HPM_P1;HPM_P2
2022/10/04 00:01:43;;;;;;;9.40;3.20;;;;;;;;;;5076907;28;20523;-73
2022/10/04 00:04:19;;;;;;;5.63;2.42;;;;;;;;;;5076650;28;20055;-73
2022/10/04 00:07:03;;;;;;;5.50;2.90;;;;;;;;;;5076547;28;20495;-73
2022/10/04 00:09:50;;;;;;;6.70;3.55;;;;;;;;;;5076181;28;20044;-73
2022/10/04 00:12:28;;;;;;;8.25;3.67;;;;;;;;;;5076507;28;20043;-73
2022/10/04 00:14:59;;;;;;;8.32;3.30;;;;;;;;;;5076025;28;20072;-73
2022/10/04 00:17:26;;;;;;;5.75;2.50;;;;;;;;;;5076628;28;20040;-73
2022/10/04 00:19:54;;;;;;;4.22;2.13;;;;;;;;;;5076240;28;20033;-73
2022/10/04 00:22:21;;;;;;;4.75;2.33;;;;;;;;;;5076525;28;20048;-73
2022/10/04 00:25:06;;;;;;;5.10;2.28;;;;;;;;;;5075863;28;20048;-73
2022/10/04 00:27:33;;;;;;;5.90;3.50;;;;;;;;;;5076024;28;20059;-73
2022/10/04 00:30:02;;;;;;;5.00;3.10;;;;;;;;;;5076041;28;20535;-73
2022/10/04 00:32:40;;;;;;;5.28;2.28;;;;;;;;;;5076309;28;20044;-73
2022/10/04 00:35:26;;;;;;;5.60;2.47;;;;;;;;;;5075853;28;20558;-73
2022/10/04 00:37:58;;;;;;;2.55;2.25;;;;;;;;;;5067973;28;20052;-73
2022/10/04 00:40:29;;;;;;;4.43;2.45;;;;;;;;;;5075187;28;20040;-73
2022/10/04 00:42:55;;;;;;;;;;;;;;;;;;5075986;28;20044;-73
2022/10/04 00:45:27;;;;;;;4.22;2.45;;;;;;;;;;5075517;28;19909;-73
2022/10/04 00:48:12;;;;;;;3.97;2.30;;;;;;;;;;5075330;28;20575;-73
2022/10/04 00:50:42;;;;;;;4.30;2.55;;;;;;;;;;5075382;28;20114;-73
2022/10/04 00:53:21;;;;;;;7.97;2.63;;;;;;;;;;5074718;28;20033;-73
2022/10/04 00:55:50;;;;;;;3.88;2.03;;;;;;;;;;5075549;28;20106;-73
2022/10/04 00:58:32;;;;;;;2.65;2.15;;;;;;;;;;5075537;28;20044;-73
2022/10/04 01:00:57;;;;;;;;;;;;;;;;;;5075974;28;20063;-73
2022/10/04 01:03:29;;;;;;;5.13;2.17;;;;;;;;;;5075306;28;20418;-73
2022/10/04 01:05:58;;;;;;;3.72;1.90;;;;;;;;;;5075091;28;20036;-73
2022/10/04 01:08:24;;;;;;;5.32;2.00;;;;;;;;;;5075262;28;20041;-73
2022/10/04 01:10:53;;;;;;;5.85;2.03;;;;;;;;;;5074989;28;20450;-73
2022/10/04 01:13:20;;;;;;;8.30;2.90;;;;;;;;;;5075165;28;20115;-73
2022/10/04 01:16:01;;;;;;;3.22;2.03;;;;;;;;;;5074851;28;20067;-73
2022/10/04 01:18:32;;;;;;;4.97;3.42;;;;;;;;;;5075106;28;20072;-73
2022/10/04 01:20:58;;;;;;;5.03;2.28;;;;;;;;;;5075151;28;20067;-73
2022/10/04 01:23:36;;;;;;;5.55;2.33;;;;;;;;;;5075319;28;20045;-73
2022/10/04 01:26:04;;;;;;;7.43;3.28;;;;;;;;;;5075302;28;20141;-73
2022/10/04 01:28:30;;;;;;;7.07;3.10;;;;;;;;;;5074868;28;20119;-73
2022/10/04 01:30:57;;;;;;;4.78;2.67;;;;;;;;;;5074702;28;20566;-73
2022/10/04 01:33:24;;;;;;;6.47;3.80;;;;;;;;;;5075437;28;20072;-73
2022/10/04 01:35:50;;;;;;;5.20;3.05;;;;;;;;;;5074811;28;20044;-73
2022/10/04 01:38:16;;;;;;;6.10;2.70;;;;;;;;;;5074923;28;20052;-73
2022/10/04 01:40:47;;;;;;;3.83;2.10;;;;;;;;;;5075077;28;20116;-73
2022/10/04 01:43:17;;;;;;;6.45;2.80;;;;;;;;;;5074957;28;20094;-73
2022/10/04 01:45:47;;;;;;;4.55;2.85;;;;;;;;;;5075188;28;20090;-73
2022/10/04 01:48:15;;;;;;;4.57;2.85;;;;;;;;;;5074816;28;20037;-73
2022/10/04 01:50:56;;;;;;;10.45;4.15;;;;;;;;;;5074559;28;20033;-73
2022/10/04 01:53:28;;;;;;;13.02;3.45;;;;;;;;;;5074772;28;20048;-73
2022/10/04 01:55:56;;;;;;;2.40;2.03;;;;;;;;;;5074465;28;20118;-73
2022/10/04 01:58:22;;;;;;;5.53;3.00;;;;;;;;;;5074254;28;20075;-73
2022/10/04 02:00:56;;;;;;;4.53;2.58;;;;;;;;;;5074649;28;20044;-73
2022/10/04 02:03:28;;;;;;;4.05;2.30;;;;;;;;;;5074356;28;20051;-73
2022/10/04 02:05:58;;;;;;;5.32;2.20;;;;;;;;;;5074675;28;20517;-73
2022/10/04 02:08:29;;;;;;;6.70;2.90;;;;;;;;;;5074378;28;20089;-73
2022/10/04 02:10:55;;;;;;;;;;;;;;;;;;5074779;28;20044;-73
2022/10/04 02:13:23;;;;;;;6.18;2.30;;;;;;;;;;5074170;28;19909;-73
2022/10/04 02:15:49;;;;;;;3.85;2.20;;;;;;;;;;5074180;28;20054;-73
2022/10/04 02:18:17;;;;;;;7.75;4.00;;;;;;;;;;5074599;28;20055;-73
2022/10/04 02:20:45;;;;;;;7.30;2.45;;;;;;;;;;5073895;28;20044;-73
2022/10/04 02:23:11;;;;;;;3.28;2.17;;;;;;;;;;5074428;28;20044;-73
2022/10/04 02:25:38;;;;;;;3.80;1.98;;;;;;;;;;5072867;28;20139;-73
2022/10/04 02:28:09;;;;;;;8.85;5.55;;;;;;;;;;5073834;28;20036;-73
2022/10/04 02:30:35;;;;;;;;;;;;;;;;;;5075166;28;20040;-73
2022/10/04 02:33:01;;;;;;;5.10;2.90;;;;;;;;;;5074178;28;19977;-73
2022/10/04 02:35:42;;;;;;;5.75;2.53;;;;;;;;;;5074222;28;20052;-73
2022/10/04 02:38:14;;;;;;;7.32;2.80;;;;;;;;;;5074337;28;20045;-73
2022/10/04 02:40:47;;;;;;;7.80;3.65;;;;;;;;;;5074010;28;20470;-73
2022/10/04 02:43:19;;;;;;;6.22;3.92;;;;;;;;;;5073752;28;20040;-73
2022/10/04 02:45:49;;;;;;;6.78;3.30;;;;;;;;;;5073992;28;20048;-73
2022/10/04 02:48:27;;;;;;;6.53;3.78;;;;;;;;;;5073952;28;20040;-73
2022/10/04 02:50:55;;;;;;;11.25;2.80;;;;;;;;;;5073652;28;20041;-73
2022/10/04 02:53:26;;;;;;;7.00;3.55;;;;;;;;;;5072366;28;20506;-73
2022/10/04 02:55:51;;;;;;;;;;;;;;;;;;5074725;28;20056;-73
2022/10/04 02:58:19;;;;;;;6.10;2.92;;;;;;;;;;5074446;28;20359;-73
2022/10/04 03:00:48;;;;;;;7.20;3.72;;;;;;;;;;5074401;28;20040;-73
2022/10/04 03:03:26;;;;;;;10.50;3.20;;;;;;;;;;5075337;28;20119;-73
2022/10/04 03:05:55;;;;;;;4.65;2.70;;;;;;;;;;5078236;28;20110;-73
2022/10/04 03:08:21;;;;;;;5.38;2.60;;;;;;;;;;5077363;28;20098;-73
2022/10/04 03:10:48;;;;;;;5.75;2.28;;;;;;;;;;5078142;28;20455;-73
2022/10/04 03:13:15;;;;;;;7.70;2.28;;;;;;;;;;5077510;28;20060;-73
2022/10/04 03:15:42;;;;;;;5.22;3.20;;;;;;;;;;5077453;28;20135;-73
2022/10/04 03:18:09;;;;;;;4.93;2.58;;;;;;;;;;5077517;28;20076;-73
2022/10/04 03:20:39;;;;;;;6.60;2.45;;;;;;;;;;5077436;28;20047;-73
2022/10/04 03:23:05;;;;;;;2.72;1.90;;;;;;;;;;5077552;28;20483;-73
2022/10/04 03:25:51;;;;;;;13.25;2.58;;;;;;;;;;5077348;28;20570;-73
2022/10/04 03:28:18;;;;;;;5.50;2.22;;;;;;;;;;5077011;28;20049;-73
2022/10/04 03:30:45;;;;;;;4.38;2.35;;;;;;;;;;5077779;28;20502;-73
2022/10/04 03:33:21;;;;;;;3.85;2.28;;;;;;;;;;5077171;28;20040;-73
2022/10/04 03:35:49;;;;;;;9.00;3.67;;;;;;;;;;5077154;28;20059;-73
2022/10/04 03:38:17;;;;;;;4.55;2.40;;;;;;;;;;5077127;28;20147;-73
2022/10/04 03:40:50;;;;;;;4.38;2.22;;;;;;;;;;5076715;28;20044;-73
2022/10/04 03:43:16;;;;;;;5.10;2.70;;;;;;;;;;5076566;28;20032;-73
2022/10/04 03:45:43;;;;;;;3.38;2.50;;;;;;;;;;5076705;28;20049;-73
2022/10/04 03:48:12;;;;;;;3.78;2.40;;;;;;;;;;5077086;28;20368;-73
2022/10/04 03:50:43;;;;;;;6.63;2.70;;;;;;;;;;5076598;28;20081;-73
2022/10/04 03:53:24;;;;;;;4.05;2.55;;;;;;;;;;5076831;28;20045;-73
2022/10/04 03:55:51;;;;;;;3.50;2.03;;;;;;;;;;5076875;28;20059;-73
2022/10/04 03:58:18;;;;;;;4.35;2.30;;;;;;;;;;5076322;28;20041;-73
2022/10/04 04:00:53;;;;;;;4.80;2.10;;;;;;;;;;5091636;28;20044;-73
2022/10/04 04:03:20;;;;;;;2.63;1.90;;;;;;;;;;5097117;28;20076;-73
2022/10/04 04:05:52;;;;;;;4.55;2.17;;;;;;;;;;5096957;28;20056;-73
2022/10/04 04:08:21;;;;;;;5.13;2.42;;;;;;;;;;5096473;28;20047;-73
2022/10/04 04:10:49;;;;;;;6.00;1.90;;;;;;;;;;5096654;28;20127;-73
2022/10/04 04:13:19;;;;;;;3.22;2.00;;;;;;;;;;5096697;28;20039;-73
2022/10/04 04:15:46;;;;;;;11.30;5.25;;;;;;;;;;5096794;28;20052;-73
2022/10/04 04:18:20;;;;;;;6.40;2.97;;;;;;;;;;5095499;28;20417;-73
2022/10/04 04:20:49;;;;;;;4.65;2.53;;;;;;;;;;5096245;28;20050;-73
2022/10/04 04:23:23;;;;;;;4.50;2.33;;;;;;;;;;5096133;28;20039;-73
2022/10/04 04:25:52;;;;;;;5.63;2.80;;;;;;;;;;5096996;28;20044;-73
2022/10/04 04:28:47;;;;;;;5.53;2.45;;;;;;;;;;5095845;28;20478;-73
2022/10/04 04:31:28;;;;;;;7.15;2.10;;;;;;;;;;5094577;28;20047;-73
2022/10/04 04:34:01;;;;;;;8.20;2.53;;;;;;;;;;5096040;28;20032;-72
2022/10/04 04:36:28;;;;;;;8.05;2.38;;;;;;;;;;5095231;28;20055;-73
2022/10/04 04:41:50;;;;;;;4.13;2.05;;;;;;;;;;5094466;28;20538;-73
2022/10/04 04:44:17;;;;;;;7.38;2.75;;;;;;;;;;5094947;28;20044;-73
2022/10/04 04:46:44;;;;;;;6.70;2.33;;;;;;;;;;5096021;28;20032;-73
2022/10/04 04:49:11;;;;;;;9.10;4.00;;;;;;;;;;5095806;28;20050;-72
2022/10/04 04:51:38;;;;;;;12.90;6.90;;;;;;;;;;5095962;28;20067;-73
2022/10/04 04:54:06;;;;;;;6.68;3.83;;;;;;;;;;5095474;28;20146;-73
2022/10/04 04:56:33;;;;;;;7.05;3.80;;;;;;;;;;5095488;28;20071;-72
2022/10/04 04:59:01;;;;;;;6.57;3.05;;;;;;;;;;5095023;28;20044;-73
2022/10/04 05:01:28;;;;;;;8.88;2.60;;;;;;;;;;5095351;28;20044;-73
2022/10/04 05:04:05;;;;;;;5.15;3.25;;;;;;;;;;5095485;28;20509;-73
2022/10/04 05:06:32;;;;;;;9.57;2.80;;;;;;;;;;5095196;28;20040;-72
2022/10/04 05:08:58;;;;;;;48.10;32.65;;;;;;;;;;5095446;28;20498;-72
2022/10/04 05:11:29;;;;;;;9.00;5.05;;;;;;;;;;5095269;28;20074;-73
2022/10/04 05:13:55;;;;;;;8.98;4.15;;;;;;;;;;5094771;28;20043;-73
2022/10/04 05:16:43;;;;;;;4.68;2.10;;;;;;;;;;5089384;28;20575;-73
2022/10/04 05:19:21;;;;;;;12.43;2.88;;;;;;;;;;5072520;28;20037;-72
2022/10/04 05:21:48;;;;;;;24.08;11.98;;;;;;;;;;5075052;28;20074;-73
2022/10/04 05:24:23;;;;;;;19.20;10.38;;;;;;;;;;5074833;28;20044;-72
2022/10/04 05:26:51;;;;;;;11.50;4.63;;;;;;;;;;5074768;28;20562;-72
2022/10/04 05:29:19;;;;;;;15.85;7.75;;;;;;;;;;5074602;28;20036;-72
2022/10/04 05:31:49;;;;;;;13.10;7.50;;;;;;;;;;5074709;28;20040;-73
2022/10/04 05:34:22;;;;;;;12.02;5.38;;;;;;;;;;5074778;28;20044;-73
2022/10/04 05:36:48;;;;;;;11.85;4.53;;;;;;;;;;5074750;28;20048;-72
2022/10/04 05:39:14;;;;;;;9.63;3.95;;;;;;;;;;5074631;28;20033;-72
2022/10/04 05:41:51;;;;;;;5.75;3.30;;;;;;;;;;5074881;28;20039;-72
2022/10/04 05:44:22;;;;;;;10.30;4.60;;;;;;;;;;5074656;28;20049;-72
2022/10/04 05:46:49;;;;;;;8.05;4.38;;;;;;;;;;5074503;28;20407;-72
2022/10/04 05:49:16;;;;;;;4.47;2.80;;;;;;;;;;5074197;28;20453;-72
2022/10/04 05:51:50;;;;;;;8.13;2.40;;;;;;;;;;5074509;28;20120;-72
2022/10/04 05:54:22;;;;;;;7.05;2.50;;;;;;;;;;5074641;28;20051;-72
2022/10/04 05:56:51;;;;;;;5.78;2.35;;;;;;;;;;5074751;28;20052;-72
2022/10/04 05:59:36;;;;;;;7.65;2.55;;;;;;;;;;5074471;28;20040;-72
2022/10/04 06:02:08;;;;;;;6.20;3.13;;;;;;;;;;5074641;28;20044;-72
2022/10/04 06:05:03;;;;;;;11.65;3.10;;;;;;;;;;5074159;28;20044;-72
2022/10/04 06:07:34;;;;;;;6.10;2.53;;;;;;;;;;5065316;28;20063;-72
2022/10/04 06:10:00;;;;;;;7.85;2.90;;;;;;;;;;5074331;28;20036;-72
2022/10/04 06:12:32;;;;;;;10.68;3.22;;;;;;;;;;5074435;28;20055;-72
2022/10/04 06:15:01;;;;;;;7.00;2.15;;;;;;;;;;5073081;28;20037;-72
2022/10/04 06:17:45;;;;;;;5.13;2.30;;;;;;;;;;5073734;28;20036;-73
2022/10/04 06:20:19;;;;;;;8.10;2.25;;;;;;;;;;5074497;28;20044;-72
2022/10/04 06:22:46;;;;;;;11.05;2.10;;;;;;;;;;5072775;28;20045;-73
2022/10/04 06:25:20;;;;;;;6.90;2.17;;;;;;;;;;5072307;28;20098;-73
2022/10/04 06:27:54;;;;;;;7.97;2.72;;;;;;;;;;5071875;28;20037;-73
2022/10/04 06:30:30;;;;;;;12.90;7.93;;;;;;;;;;5073422;28;20036;-73
2022/10/04 06:32:57;;;;;;;7.55;4.28;;;;;;;;;;5073002;28;20071;-73
2022/10/04 06:35:41;;;;;;;8.15;4.78;;;;;;;;;;5074201;28;20094;-73
2022/10/04 06:38:21;;;;;;;11.30;7.10;;;;;;;;;;5077094;28;20066;-72
2022/10/04 06:40:53;;;;;;;12.63;5.18;;;;;;;;;;5077102;28;20467;-72
2022/10/04 06:43:28;;;;;;;10.57;3.70;;;;;;;;;;5077271;28;20072;-73
2022/10/04 06:46:11;;;;;;;6.00;3.10;;;;;;;;;;5076813;28;20578;-73
2022/10/04 06:48:40;;;;;;;11.00;2.90;;;;;;;;;;5077958;28;20041;-73
2022/10/04 06:51:22;;;;;;;5.10;3.22;;;;;;;;;;5076643;28;20605;-72
2022/10/04 06:54:02;;;;;;;8.43;2.72;;;;;;;;;;5057627;28;20052;-72
2022/10/04 06:56:37;;;;;;;15.40;7.73;;;;;;;;;;5061404;28;20052;-73
2022/10/04 06:59:30;;;;;;;11.68;4.75;;;;;;;;;;5070767;28;20154;-73
2022/10/04 07:01:58;;;;;;;12.10;5.30;;;;;;;;;;5077506;28;20036;-72
2022/10/04 07:04:29;;;;;;;10.90;6.78;;;;;;;;;;5076892;28;20048;-71
2022/10/04 07:07:34;;;;;;;18.23;6.18;;;;;;;;;;5076545;28;20041;-72
2022/10/04 07:10:15;;;;;;;10.93;4.40;;;;;;;;;;5077717;28;20059;-72
2022/10/04 07:12:43;;;;;;;10.23;3.50;;;;;;;;;;5076894;28;20123;-72
2022/10/04 07:15:16;;;;;;;6.15;3.15;;;;;;;;;;5076686;28;20566;-72
2022/10/04 07:17:42;;;;;;;9.70;3.47;;;;;;;;;;5077260;28;20052;-72
2022/10/04 07:20:35;;;;;;;7.20;3.17;;;;;;;;;;5076595;28;20036;-72
2022/10/04 07:23:05;;;;;;;7.15;3.38;;;;;;;;;;5074100;28;20055;-72
2022/10/04 07:25:34;;;;;;;6.97;3.83;;;;;;;;;;5071810;28;20064;-72
2022/10/04 07:31:02;;;;;;;6.90;3.80;;;;;;;;;;5072037;28;20082;-72
2022/10/04 07:33:29;;;;;;;8.52;3.83;;;;;;;;;;5075996;28;20048;-72
2022/10/04 07:36:01;;;;;;;4.88;3.53;;;;;;;;;;5075873;28;20075;-72
2022/10/04 07:38:29;;;;;;;10.77;3.63;;;;;;;;;;5077165;28;20133;-72
2022/10/04 07:40:58;;;;;;;7.93;3.60;;;;;;;;;;5075866;28;20392;-72
2022/10/04 07:43:32;;;;;;;6.03;2.95;;;;;;;;;;5085044;28;20047;-72
2022/10/04 07:46:13;;;;;;;12.18;4.10;;;;;;;;;;5094077;28;20044;-72
2022/10/04 07:48:40;;;;;;;7.72;4.00;;;;;;;;;;5075324;28;20044;-72
2022/10/04 07:51:25;;;;;;;7.18;4.15;;;;;;;;;;5076560;28;20029;-72
2022/10/04 07:53:58;;;;;;;7.63;3.88;;;;;;;;;;5074744;28;20094;-73
2022/10/04 07:56:33;;;;;;;5.80;2.90;;;;;;;;;;5074247;28;20051;-72
2022/10/04 07:58:59;;;;;;;7.90;2.90;;;;;;;;;;5070346;28;20134;-71
2022/10/04 08:01:32;;;;;;;8.27;3.30;;;;;;;;;;5072950;28;20044;-71
2022/10/04 08:03:58;;;;;;;6.30;2.55;;;;;;;;;;5075906;28;20522;-71
2022/10/04 08:06:33;;;;;;;6.55;2.97;;;;;;;;;;5073572;28;20040;-72
2022/10/04 08:09:15;;;;;;;4.63;2.95;;;;;;;;;;5075772;28;20033;-71
2022/10/04 08:12:00;;;;;;;5.50;2.60;;;;;;;;;;5076464;28;20043;-72
2022/10/04 08:14:58;;;;;;;7.68;2.90;;;;;;;;;;5073669;28;20048;-71
2022/10/04 08:17:43;;;;;;;5.43;2.33;;;;;;;;;;5050670;28;20048;-72
2022/10/04 08:20:18;;;;;;;5.20;2.58;;;;;;;;;;5074602;28;20067;-72
2022/10/04 08:23:03;;;;;;;7.07;3.08;;;;;;;;;;5072914;28;20529;-71
2022/10/04 08:25:31;;;;;;;5.97;2.90;;;;;;;;;;5073435;28;20051;-71
2022/10/04 08:30:51;;;;;;;3.50;2.17;;;;;;;;;;5070788;28;20035;-71
2022/10/04 08:33:23;;;;;;;4.82;2.60;;;;;;;;;;5075947;28;20048;-72
2022/10/04 08:36:02;;;;;;;6.93;2.38;;;;;;;;;;5076154;28;20066;-71
2022/10/04 08:38:34;;;;;;;5.72;2.50;;;;;;;;;;5055610;28;20106;-72
2022/10/04 08:41:23;;;;;;;6.95;3.42;;;;;;;;;;5055328;28;20550;-71
2022/10/04 08:44:09;;;;;;;6.55;2.10;;;;;;;;;;5073922;28;20120;-71
2022/10/04 08:46:47;;;;;;;4.32;2.53;;;;;;;;;;5073641;28;20111;-72
2022/10/04 08:49:32;;;;;;;4.18;2.38;;;;;;;;;;5067704;28;20059;-72
2022/10/04 08:52:04;;;;;;;7.68;2.67;;;;;;;;;;5075682;28;20040;-72
2022/10/04 08:54:49;;;;;;;6.80;2.20;;;;;;;;;;5074356;28;20052;-72
2022/10/04 08:57:34;;;;;;;5.90;1.70;;;;;;;;;;5074032;28;20040;-72
2022/10/04 09:00:06;;;;;;;2.80;1.65;;;;;;;;;;5069738;28;20127;-72
2022/10/04 09:02:51;;;;;;;4.18;1.60;;;;;;;;;;5073642;28;20071;-71
2022/10/04 09:05:20;;;;;;;10.38;1.52;;;;;;;;;;5074423;28;20560;-71
2022/10/04 09:08:04;;;;;;;5.63;1.70;;;;;;;;;;5074323;28;20117;-71
2022/10/04 09:10:31;;;;;;;2.80;1.48;;;;;;;;;;5075092;28;20036;-71
2022/10/04 09:13:17;;;;;;;4.32;1.63;;;;;;;;;;5074464;28;20128;-70
2022/10/04 09:16:02;;;;;;;6.20;1.92;;;;;;;;;;5074692;28;20047;-70
2022/10/04 09:18:28;;;;;;;4.18;1.60;;;;;;;;;;5073144;28;20040;-70
2022/10/04 09:20:57;;;;;;;3.40;1.85;;;;;;;;;;5074481;28;20123;-70
2022/10/04 09:23:44;;;;;;;1.70;1.30;;;;;;;;;;5074689;28;20052;-70
2022/10/04 09:26:19;;;;;;;2.08;1.40;;;;;;;;;;5072338;28;20044;-70
2022/10/04 09:28:48;;;;;;;1.65;1.17;;;;;;;;;;5072711;28;20040;-70
2022/10/04 09:31:18;;;;;;;3.15;1.85;;;;;;;;;;5070673;28;20128;-71
2022/10/04 09:33:51;;;;;;;2.27;1.20;;;;;;;;;;5073817;28;20575;-70
2022/10/04 09:36:26;;;;;;;4.35;1.20;;;;;;;;;;5072384;28;20060;-71
2022/10/04 09:39:13;;;;;;;1.85;1.17;;;;;;;;;;5058398;28;20037;-71
2022/10/04 09:41:39;;;;;;;2.88;1.00;;;;;;;;;;5074762;28;20488;-71
2022/10/04 09:44:32;;;;;;;1.20;1.10;;;;;;;;;;5072510;28;20097;-70
2022/10/04 09:47:21;;;;;;;0.93;0.77;;;;;;;;;;5065089;28;20055;-71
2022/10/04 09:50:06;;;;;;;1.85;0.90;;;;;;;;;;5074086;28;20041;-71
2022/10/04 09:52:50;;;;;;;3.03;1.08;;;;;;;;;;5071296;28;20037;-70
2022/10/04 09:55:35;;;;;;;2.05;0.90;;;;;;;;;;5072892;28;20475;-71
2022/10/04 09:58:11;;;;;;;2.00;1.13;;;;;;;;;;5066775;28;20083;-70
2022/10/04 10:01:13;;;;;;;2.10;1.00;;;;;;;;;;5070313;28;20063;-70
2022/10/04 10:03:54;;;;;;;3.65;0.95;;;;;;;;;;5011384;28;20046;-70
2022/10/04 10:06:26;;;;;;;3.78;1.30;;;;;;;;;;5067469;28;20072;-70
2022/10/04 10:09:11;;;;;;;1.27;0.98;;;;;;;;;;5073986;28;20070;-71
2022/10/04 10:14:49;;;;;;;3.55;1.20;;;;;;;;;;5076346;28;20043;-71
2022/10/04 10:17:27;;;;;;;1.20;0.68;;;;;;;;;;5075619;28;20071;-71
2022/10/04 10:20:15;;;;;;;2.10;0.98;;;;;;;;;;5076617;28;20048;-71
2022/10/04 10:23:00;;;;;;;3.65;1.00;;;;;;;;;;5073503;28;20064;-70
2022/10/04 10:25:29;;;;;;;2.65;0.80;;;;;;;;;;5058358;28;20048;-71
2022/10/04 10:27:58;;;;;;;3.80;0.98;;;;;;;;;;5076979;28;20114;-71
2022/10/04 10:30:30;;;;;;;1.40;1.08;;;;;;;;;;5074849;28;20044;-71
2022/10/04 10:33:11;;;;;;;5.78;1.38;;;;;;;;;;5076836;28;20094;-71
2022/10/04 10:35:46;;;;;;;1.65;1.10;;;;;;;;;;5078003;28;20105;-72
2022/10/04 10:38:33;;;;;;;2.45;0.80;;;;;;;;;;5076707;28;20099;-71
2022/10/04 10:41:19;;;;;;;3.13;0.85;;;;;;;;;;5076806;28;20034;-71
2022/10/04 10:43:57;;;;;;;2.15;0.90;;;;;;;;;;5077582;28;20048;-71
2022/10/04 10:46:45;;;;;;;1.65;1.02;;;;;;;;;;5075987;28;20110;-71
2022/10/04 10:49:30;;;;;;;2.92;0.70;;;;;;;;;;5075016;28;20041;-71
2022/10/04 10:51:56;;;;;;;2.15;0.88;;;;;;;;;;5076234;28;20032;-71
2022/10/04 10:54:44;;;;;;;2.45;1.00;;;;;;;;;;5076226;28;20048;-71
2022/10/04 10:57:13;;;;;;;1.85;0.85;;;;;;;;;;5074591;28;20076;-72
2022/10/04 10:59:39;;;;;;;2.42;0.77;;;;;;;;;;5075498;28;20044;-72
2022/10/04 11:02:09;;;;;;;4.53;0.77;;;;;;;;;;5074204;28;20045;-73
2022/10/04 11:04:41;;;;;;;3.53;0.80;;;;;;;;;;5075649;28;20048;-73
2022/10/04 11:07:07;;;;;;;5.28;1.20;;;;;;;;;;5076017;28;20032;-72
2022/10/04 11:09:33;;;;;;;2.83;0.88;;;;;;;;;;5075269;28;20051;-73
2022/10/04 11:12:05;;;;;;;3.40;1.33;;;;;;;;;;5075777;28;20064;-78
2022/10/04 11:14:37;;;;;;;2.10;1.00;;;;;;;;;;5075751;28;20044;-78
2022/10/04 11:17:12;;;;;;;2.50;0.90;;;;;;;;;;5076157;28;20119;-79
2022/10/04 11:19:41;;;;;;;2.85;0.90;;;;;;;;;;5074119;28;20171;-77
2022/10/04 11:22:26;;;;;;;2.13;0.80;;;;;;;;;;5075091;28;20052;-77
2022/10/04 11:24:55;;;;;;;2.65;0.85;;;;;;;;;;5074047;28;20045;-79
2022/10/04 11:27:42;;;;;;;1.88;0.90;;;;;;;;;;5075639;28;20040;-76
2022/10/04 11:30:15;;;;;;;1.58;0.90;;;;;;;;;;5056844;28;20047;-75
2022/10/04 11:32:58;;;;;;;2.58;0.88;;;;;;;;;;5056951;28;20033;-75
2022/10/04 11:35:43;;;;;;;2.63;1.05;;;;;;;;;;5057082;28;20044;-75
2022/10/04 11:38:29;;;;;;;2.97;1.05;;;;;;;;;;5057026;28;20038;-75
2022/10/04 11:40:56;;;;;;;2.45;1.00;;;;;;;;;;5056491;28;20041;-75
2022/10/04 11:43:30;;;;;;;1.08;0.70;;;;;;;;;;5060905;28;20037;-72
2022/10/04 11:46:03;;;;;;;3.45;1.23;;;;;;;;;;5077734;28;20040;-76
2022/10/04 11:48:35;;;;;;;1.05;0.80;;;;;;;;;;5068652;28;20044;-76
2022/10/04 11:51:02;;;;;;;1.83;0.90;;;;;;;;;;5065744;28;20506;-77
2022/10/04 11:54:06;;;;;;;3.38;1.00;;;;;;;;;;5074906;28;20552;-77
2022/10/04 11:56:35;;;;;;;1.52;0.80;;;;;;;;;;5013235;28;22069;-77
2022/10/04 11:59:04;;;;;;;3.20;0.80;;;;;;;;;;5013931;28;20037;-76
2022/10/04 12:01:49;;;;;;;2.53;0.82;;;;;;;;;;5046234;28;20140;-76
2022/10/04 12:04:16;;;;;;;1.20;0.85;;;;;;;;;;5075362;28;20036;-76
2022/10/04 12:06:50;;;;;;;2.05;0.90;;;;;;;;;;5075655;28;20036;-77
2022/10/04 12:09:23;;;;;;;1.80;0.80;;;;;;;;;;5076504;28;20533;-77
2022/10/04 12:14:39;;;;;;;1.40;0.80;;;;;;;;;;5073068;28;20036;-76
2022/10/04 12:17:14;;;;;;;4.60;1.02;;;;;;;;;;5059469;28;20036;-70
2022/10/04 12:19:51;;;;;;;3.28;0.90;;;;;;;;;;5074677;28;20534;-71
2022/10/04 12:22:40;;;;;;;2.63;0.88;;;;;;;;;;5062893;28;20123;-69
2022/10/04 12:25:29;;;;;;;1.92;1.00;;;;;;;;;;5062610;28;20036;-71
2022/10/04 12:28:14;;;;;;;2.33;0.90;;;;;;;;;;5067798;28;20040;-70
2022/10/04 12:31:01;;;;;;;4.05;1.00;;;;;;;;;;5075033;28;20036;-72
2022/10/04 12:33:30;;;;;;;0.93;0.60;;;;;;;;;;5073981;28;20114;-70
2022/10/04 12:35:56;;;;;;;2.05;0.95;;;;;;;;;;5073555;28;20106;-72
2022/10/04 12:38:41;;;;;;;2.60;1.00;;;;;;;;;;5074735;28;20073;-72
2022/10/04 12:41:23;;;;;;;0.70;0.57;;;;;;;;;;5072614;28;20093;-73
2022/10/04 12:43:49;;;;;;;1.30;0.77;;;;;;;;;;5074312;28;20210;-72
2022/10/04 12:46:22;;;;;;;0.70;0.50;;;;;;;;;;5074981;28;20105;-72
2022/10/04 12:48:49;;;;;;;0.75;0.40;;;;;;;;;;5074832;28;20040;-71
2022/10/04 12:51:21;;;;;;;0.65;0.50;;;;;;;;;;5074218;28;20103;-70
2022/10/04 12:53:53;;;;;;;0.85;0.40;;;;;;;;;;5075127;28;20040;-72
2022/10/04 12:56:31;;;;;;;3.03;0.40;;;;;;;;;;5075322;28;20052;-71
2022/10/04 12:59:16;;;;;;;0.73;0.45;;;;;;;;;;5072677;28;20082;-71
2022/10/04 13:01:58;;;;;;;1.98;0.47;;;;;;;;;;5074296;28;20032;-70
2022/10/04 13:04:41;;;;;;;0.73;0.60;;;;;;;;;;5074508;28;20047;-71
2022/10/04 13:07:08;;;;;;;1.27;0.52;;;;;;;;;;5073434;28;20040;-72
2022/10/04 13:09:34;;;;;;;1.08;0.63;;;;;;;;;;5074045;28;20138;-74
2022/10/04 13:12:00;;;;;;;0.63;0.63;;;;;;;;;;5075811;28;20032;-71
2022/10/04 13:14:27;;;;;;;2.95;0.70;;;;;;;;;;5074039;28;20101;-71
2022/10/04 13:16:56;;;;;;;0.88;0.55;;;;;;;;;;5073929;28;20039;-73
2022/10/04 13:19:28;;;;;;;2.25;0.80;;;;;;;;;;5070441;28;20047;-73
2022/10/04 13:22:00;;;;;;;2.80;0.70;;;;;;;;;;5072860;28;20044;-73
2022/10/04 13:24:53;;;;;;;0.80;0.70;;;;;;;;;;5074453;28;20045;-70
2022/10/04 13:27:21;;;;;;;1.65;0.70;;;;;;;;;;5074057;28;20040;-71
2022/10/04 13:30:01;;;;;;;1.23;0.60;;;;;;;;;;5072354;28;20037;-73
2022/10/04 13:32:35;;;;;;;1.58;1.00;;;;;;;;;;5074367;28;20044;-73
2022/10/04 13:35:14;;;;;;;1.17;0.70;;;;;;;;;;5073975;28;20565;-71
2022/10/04 13:37:59;;;;;;;135.35;90.15;;;;;;;;;;5073938;28;20044;-75
2022/10/04 13:40:31;;;;;;;25.83;16.90;;;;;;;;;;5072360;28;20069;-72
2022/10/04 13:43:16;;;;;;;2.17;1.88;;;;;;;;;;5074131;28;20039;-72
2022/10/04 13:45:49;;;;;;;1.75;1.65;;;;;;;;;;5056664;28;20044;-72
2022/10/04 13:48:41;;;;;;;2.35;1.15;;;;;;;;;;5072866;28;20047;-72
2022/10/04 13:51:07;;;;;;;1.48;1.10;;;;;;;;;;5068128;28;20085;-72
2022/10/04 13:57:04;;;;;;;2.45;1.20;;;;;;;;;;5052234;28;20060;-72
2022/10/04 13:59:34;;;;;;;1.10;0.90;;;;;;;;;;5068353;28;20414;-72
2022/10/04 14:02:20;;;;;;;4.22;1.58;;;;;;;;;;5074422;28;20040;-72
2022/10/04 14:04:46;;;;;;;1.83;1.27;;;;;;;;;;5073965;28;20368;-72
2022/10/04 14:07:15;;;;;;;2.08;1.00;;;;;;;;;;5073777;28;20186;-72
2022/10/04 14:09:45;;;;;;;1.77;0.77;;;;;;;;;;5067292;28;20397;-70
2022/10/04 14:12:11;;;;;;;0.52;0.52;;;;;;;;;;5072278;28;20149;-70
2022/10/04 14:15:01;;;;;;;2.47;0.70;;;;;;;;;;5072977;28;20052;-69
2022/10/04 14:18:03;;;;;;;1.65;0.80;;;;;;;;;;5073393;28;20118;-71
2022/10/04 14:20:46;;;;;;;2.85;0.70;;;;;;;;;;4990732;28;20497;-72
2022/10/04 14:23:24;;;;;;;1.13;0.88;;;;;;;;;;5066304;28;20062;-69
2022/10/04 14:26:01;;;;;;;1.50;0.80;;;;;;;;;;5073177;28;20044;-71
2022/10/04 14:28:46;;;;;;;3.20;0.73;;;;;;;;;;5071853;28;20909;-70
2022/10/04 14:31:27;;;;;;;2.72;0.90;;;;;;;;;;5064307;28;20085;-70
2022/10/04 14:33:53;;;;;;;0.68;0.60;;;;;;;;;;5069911;28;20045;-70
2022/10/04 14:36:20;;;;;;;1.33;0.80;;;;;;;;;;5071214;28;20036;-70
2022/10/04 14:39:04;;;;;;;2.55;0.90;;;;;;;;;;5071001;28;20048;-70
2022/10/04 14:41:33;;;;;;;1.30;0.82;;;;;;;;;;5069545;28;20041;-72
2022/10/04 14:43:59;;;;;;;1.25;0.70;;;;;;;;;;5071054;28;20072;-73
2022/10/04 14:46:29;;;;;;;3.35;0.73;;;;;;;;;;5067555;28;20460;-72
2022/10/04 14:49:10;;;;;;;2.58;0.75;;;;;;;;;;5071752;28;20037;-72
2022/10/04 14:51:39;;;;;;;1.33;0.57;;;;;;;;;;5071266;28;20515;-72
2022/10/04 14:54:11;;;;;;;1.90;0.70;;;;;;;;;;5068875;28;20048;-73
2022/10/04 14:56:52;;;;;;;1.27;0.80;;;;;;;;;;5069885;28;20053;-73
2022/10/04 14:59:37;;;;;;;1.42;0.70;;;;;;;;;;5068667;28;20183;-72
2022/10/04 15:02:06;;;;;;;2.30;0.90;;;;;;;;;;5074745;28;20040;-73
2022/10/04 15:04:51;;;;;;;1.95;0.90;;;;;;;;;;5076460;28;20491;-72
2022/10/04 15:07:18;;;;;;;0.70;0.70;;;;;;;;;;5072112;28;20098;-72
2022/10/04 15:10:03;;;;;;;2.75;0.77;;;;;;;;;;5075144;28;20063;-73
2022/10/04 15:12:38;;;;;;;1.50;0.85;;;;;;;;;;5074306;28;20040;-72
2022/10/04 15:15:24;;;;;;;2.08;0.93;;;;;;;;;;5074427;28;20040;-72
2022/10/04 15:17:50;;;;;;;1.45;0.93;;;;;;;;;;5074216;28;20056;-72
2022/10/04 15:20:35;;;;;;;3.70;0.98;;;;;;;;;;5075930;28;20040;-72
2022/10/04 15:23:01;;;;;;;4.25;1.67;;;;;;;;;;5075277;28;20121;-72
2022/10/04 15:25:36;;;;;;;4.63;2.28;;;;;;;;;;5074762;28;20079;-72
2022/10/04 15:28:06;;;;;;;3.42;1.40;;;;;;;;;;5075408;28;20071;-72
2022/10/04 15:30:52;;;;;;;5.22;2.33;;;;;;;;;;5075213;28;20041;-72
2022/10/04 15:33:26;;;;;;;2.00;1.67;;;;;;;;;;5075633;28;20052;-72
2022/10/04 15:36:02;;;;;;;1.23;1.13;;;;;;;;;;5074792;28;20051;-71
2022/10/04 15:38:35;;;;;;;6.32;3.88;;;;;;;;;;5074496;28;20052;-70
2022/10/04 15:41:06;;;;;;;3.70;1.40;;;;;;;;;;5067134;28;20112;-71
2022/10/04 15:43:32;;;;;;;;;;;;;;;;;;5075768;28;20045;-72